Share

Al Qaysumah, Saudi Arabia

1:14 AM AST on April 24, 2014 (GMT +0300)
Hafr Al-Batin (OEPA) Elev 1175 ft | 28.32 °N, 46.13 °E | Change Station

Current weather conditions updated 14 minutes ago

Clear
Clear
79 °F
Feels Like 79 °F
N
12
Wind Variable Wind from NNE
Sunrise 5:21 AM
Sunset 6:26 PM
Moon Waning Crescent

Today is forecast to be Cooler than yesterday.

Pressure 29.89 in
Visibility -9999.0 miles
Clouds
Dew Point 48 °F
Humidity 34%
Rainfall 0.00 in
Snow Depth Not available.
UV Not available.
Pollen Not available.
Air Quality Not available.
Flu Activity Not available.
METAR OEPA 232200Z 02010KT CAVOK 26/09 Q1012 NOSIG

More Conditions Fewer Conditions

Pressure 29.89 in
Visibility -9999.0 miles
Clouds
Dew Point 48 °F
Humidity 34%
Rainfall 0.00 in
Snow Depth Not available.
UV Not available.
Pollen Not available.
Air Quality Not available.
Flu Activity Not available.
METAR OEPA 232200Z 02010KT CAVOK 26/09 Q1012 NOSIG

More Conditions Fewer Conditions

10-Day Weather Forecast

Almanac

Astronomy

Apr. 24, 2014 Rise Set
Actual Time 5:21 AM AST 6:26 PM AST
Civil Twilight 4:57 AM AST 6:50 PM AST
Nautical Twilight 4:28 AM AST 7:19 PM AST
Astronomical Twilight 3:58 AM AST 7:49 PM AST
Moon 1:50 AM AST (4/24) 1:41 PM AST (4/24)
Length of Visible Light 13h 53m
Length of Day
13h 04m
Tomorrow will be 1m 31s longer.
Waning Crescent, 32% of the Moon is Illuminated
Apr 23
Waning Crescent
Apr 29
New
May 6
First Quarter
May 14
Full
May 21
Last Quarter

Yesterday's Extremes

Country Highs Country Lows

Community

  • Stunning Sunrise
    Stunning Sunrise
  • spring flowers
    spring flowers
  • Earth Day Spectrum Ove' Blue
    Earth Day Spectrum Ove' Blue
  • BARN B&W
    BARN B&W
  • FROM OUT OF DAWN THIS MORNING/
    FROM OUT OF DAWN THIS MORNING/

WunderPhotos

Upload Photos

1,704,426 photos uploaded!

WunderBlogs® & News

Nearby

Snow Depth

Not available.

Coastal Water Temperatures

Place Temperature
No Stations Reporting

Earthquake Activity

City Distance Mag. Time & Date
No recent earthquake activity has been reported nearby.
Minimum magnitude displayed is 2.5.

Nearby Weather Stations

There are no personal weather stations in this area.

What do you think?

We're not finished. Please let us know what you like, what you don't like, and what you are still missing.